Time;durP1;ratioP1;P1;durP2;ratioP2;P2;SDS_P1;SDS_P2;PMS_P1;PMS_P2;Temp;Humidity;BMP_temperature;BMP_pressure;BME280_temperature;BME280_humidity;BME280_pressure;Samples;Min_cycle;Max_cycle;Signal;HPM_P1;HPM_P2
2023/03/04 00:01:38;;;;;;;14.18;6.13;;;;;;;;;;10216401;28;20225;-77
2023/03/04 00:06:39;;;;;;;10.43;5.20;;;;;;;;;;10221025;28;20230;-75
2023/03/04 00:11:40;;;;;;;7.35;4.18;;;;;;;;;;10213581;28;20333;-76
2023/03/04 00:16:41;;;;;;;7.78;3.92;;;;;;;;;;10215911;28;20735;-78
2023/03/04 00:21:42;;;;;;;7.68;3.80;;;;;;;;;;10228094;28;20722;-80
2023/03/04 00:26:45;;;;;;;10.50;4.28;;;;;;;;;;10213351;28;20214;-81
2023/03/04 00:31:46;;;;;;;9.77;4.13;;;;;;;;;;10200316;28;20795;-77
2023/03/04 00:36:47;;;;;;;6.78;4.20;;;;;;;;;;10218501;28;20224;-81
2023/03/04 00:41:48;;;;;;;6.43;4.10;;;;;;;;;;10213871;28;20222;-77
2023/03/04 00:46:49;;;;;;;5.82;3.97;;;;;;;;;;10218338;28;20278;-76
2023/03/04 00:51:50;;;;;;;8.32;4.68;;;;;;;;;;10200004;28;20230;-75
2023/03/04 00:56:52;;;;;;;3.97;3.28;;;;;;;;;;10217338;28;20253;-77
2023/03/04 01:01:53;;;;;;;9.95;4.55;;;;;;;;;;10210854;28;20795;-76
2023/03/04 01:06:54;;;;;;;4.60;3.42;;;;;;;;;;10200269;28;20218;-77
2023/03/04 01:11:55;;;;;;;7.22;2.72;;;;;;;;;;10218139;28;20333;-79
2023/03/04 01:16:56;;;;;;;8.15;2.95;;;;;;;;;;10212005;28;20222;-76
2023/03/04 01:21:57;;;;;;;4.70;2.50;;;;;;;;;;10211313;28;20587;-76
2023/03/04 01:26:59;;;;;;;8.57;2.03;;;;;;;;;;10196855;28;20308;-76
2023/03/04 01:32:00;;;;;;;7.32;3.40;;;;;;;;;;10230605;28;20723;-78
2023/03/04 01:37:01;;;;;;;9.75;2.30;;;;;;;;;;10203711;28;20573;-78
2023/03/04 01:42:02;;;;;;;5.07;1.70;;;;;;;;;;10202850;28;20340;-78
2023/03/04 01:47:03;;;;;;;7.32;2.10;;;;;;;;;;10209357;28;20219;-79
2023/03/04 01:52:05;;;;;;;3.35;1.33;;;;;;;;;;10214865;28;20308;-75
2023/03/04 01:57:15;;;;;;;4.25;1.70;;;;;;;;;;10210442;28;20226;-78
2023/03/04 02:02:16;;;;;;;7.53;1.77;;;;;;;;;;10179925;28;20230;-78
2023/03/04 02:07:17;;;;;;;6.32;2.40;;;;;;;;;;10213796;28;20222;-81
2023/03/04 02:12:19;;;;;;;5.43;1.75;;;;;;;;;;10179849;28;21227;-79
2023/03/04 02:17:26;;;;;;;3.80;1.23;;;;;;;;;;10198305;28;20246;-77
2023/03/04 02:22:28;;;;;;;10.65;2.45;;;;;;;;;;10214038;28;20610;-79
2023/03/04 02:27:29;;;;;;;4.75;1.27;;;;;;;;;;10215447;28;20288;-75
2023/03/04 02:32:30;;;;;;;2.47;0.80;;;;;;;;;;10196696;28;21848;-78
2023/03/04 02:37:32;;;;;;;7.95;1.15;;;;;;;;;;10202736;28;20226;-77
2023/03/04 02:42:33;;;;;;;7.22;1.45;;;;;;;;;;10176576;28;20230;-79
2023/03/04 02:47:34;;;;;;;6.57;1.15;;;;;;;;;;10207896;28;20214;-77
2023/03/04 02:52:35;;;;;;;7.75;1.27;;;;;;;;;;10176806;28;20233;-77
2023/03/04 02:57:36;;;;;;;7.05;1.42;;;;;;;;;;10207009;28;20229;-78
2023/03/04 03:02:38;;;;;;;2.15;1.23;;;;;;;;;;10194849;28;20851;-75
2023/03/04 03:07:39;;;;;;;4.35;1.38;;;;;;;;;;10215448;28;20223;-76
2023/03/04 03:12:40;;;;;;;5.15;0.80;;;;;;;;;;10214885;28;20693;-76
2023/03/04 03:17:41;;;;;;;10.25;1.40;;;;;;;;;;10218200;28;20593;-77
2023/03/04 03:22:42;;;;;;;4.88;1.05;;;;;;;;;;10224585;28;20305;-78
2023/03/04 03:27:44;;;;;;;7.43;1.20;;;;;;;;;;10204200;28;20328;-77
2023/03/04 03:32:47;;;;;;;6.65;1.33;;;;;;;;;;10204552;28;20317;-77
2023/03/04 03:37:48;;;;;;;3.83;1.10;;;;;;;;;;10219674;28;20222;-78
2023/03/04 03:42:49;;;;;;;6.57;0.75;;;;;;;;;;10205482;28;20956;-76
2023/03/04 03:47:51;;;;;;;1.58;0.80;;;;;;;;;;10201439;28;20218;-78
2023/03/04 03:52:52;;;;;;;2.08;1.05;;;;;;;;;;10234309;28;20717;-77
2023/03/04 03:57:53;;;;;;;10.32;1.45;;;;;;;;;;10213923;28;20222;-74
2023/03/04 04:02:55;;;;;;;7.15;1.08;;;;;;;;;;10216034;28;20316;-77
2023/03/04 04:07:56;;;;;;;6.25;1.60;;;;;;;;;;10204801;28;20218;-77
2023/03/04 04:12:58;;;;;;;2.83;0.93;;;;;;;;;;10214748;28;20217;-77
2023/03/04 04:17:59;;;;;;;7.07;0.57;;;;;;;;;;10215371;28;20218;-78
2023/03/04 04:23:00;;;;;;;6.72;1.42;;;;;;;;;;10223450;28;20252;-80
2023/03/04 04:28:02;;;;;;;1.65;0.73;;;;;;;;;;10216287;28;20210;-78
2023/03/04 04:33:03;;;;;;;5.63;1.00;;;;;;;;;;10199256;28;20274;-77
2023/03/04 04:38:05;;;;;;;3.28;1.00;;;;;;;;;;10222419;28;20221;-75
2023/03/04 04:43:06;;;;;;;7.18;0.80;;;;;;;;;;10218876;28;20242;-79
2023/03/04 04:48:07;;;;;;;3.85;0.90;;;;;;;;;;10216386;28;20723;-80
2023/03/04 04:53:11;;;;;;;3.08;0.75;;;;;;;;;;10219522;28;20230;-78
2023/03/04 04:58:13;;;;;;;1.50;0.82;;;;;;;;;;10194174;28;21973;-77
2023/03/04 05:03:14;;;;;;;2.35;0.50;;;;;;;;;;10200737;28;20229;-78
2023/03/04 05:08:15;;;;;;;4.90;0.90;;;;;;;;;;10223569;28;20218;-76
2023/03/04 05:13:18;;;;;;;1.40;0.63;;;;;;;;;;10198181;28;20226;-78
2023/03/04 05:18:19;;;;;;;2.28;0.95;;;;;;;;;;10219550;28;20245;-79
2023/03/04 05:23:21;;;;;;;2.55;0.50;;;;;;;;;;10205952;28;20222;-76
2023/03/04 05:28:22;;;;;;;1.25;0.55;;;;;;;;;;10213538;28;20323;-79
2023/03/04 05:33:23;;;;;;;6.32;0.82;;;;;;;;;;10211049;28;20964;-78
2023/03/04 05:38:25;;;;;;;2.08;0.90;;;;;;;;;;10216778;28;20222;-79
2023/03/04 05:43:29;;;;;;;2.63;0.90;;;;;;;;;;10226887;28;20242;-78
2023/03/04 05:48:30;;;;;;;0.85;0.85;;;;;;;;;;10213829;28;20996;-79
2023/03/04 05:53:31;;;;;;;3.60;0.70;;;;;;;;;;10215394;28;20222;-81
2023/03/04 05:58:32;;;;;;;0.50;0.50;;;;;;;;;;10203271;28;20249;-79
2023/03/04 06:03:34;;;;;;;4.72;0.70;;;;;;;;;;10213721;28;20222;-80
2023/03/04 06:08:35;;;;;;;4.55;1.08;;;;;;;;;;10199240;28;20705;-78
2023/03/04 06:13:37;;;;;;;8.00;0.65;;;;;;;;;;10191309;28;20290;-77
2023/03/04 06:18:38;;;;;;;1.85;0.45;;;;;;;;;;10203808;28;20316;-79
2023/03/04 06:23:40;;;;;;;2.35;0.70;;;;;;;;;;10204258;28;20241;-77
2023/03/04 06:28:42;;;;;;;2.88;0.85;;;;;;;;;;10202176;28;20265;-79
2023/03/04 06:33:45;;;;;;;4.60;0.77;;;;;;;;;;10205095;28;20660;-77
2023/03/04 06:38:46;;;;;;;1.70;0.70;;;;;;;;;;10220445;28;20256;-77
2023/03/04 06:43:47;;;;;;;4.00;0.90;;;;;;;;;;10197556;28;20238;-78
2023/03/04 06:48:48;;;;;;;4.28;0.95;;;;;;;;;;10187673;28;21234;-78
2023/03/04 06:53:49;;;;;;;1.45;0.65;;;;;;;;;;10201668;28;20446;-76
2023/03/04 06:58:50;;;;;;;2.80;0.60;;;;;;;;;;10208184;28;20289;-78
2023/03/04 07:03:52;;;;;;;4.90;0.88;;;;;;;;;;10202026;28;20225;-78
2023/03/04 07:08:53;;;;;;;6.63;0.82;;;;;;;;;;10205307;28;20214;-76
2023/03/04 07:13:55;;;;;;;3.40;0.60;;;;;;;;;;10193326;28;20221;-78
2023/03/04 07:18:57;;;;;;;2.35;0.63;;;;;;;;;;10176123;28;20254;-80
2023/03/04 07:23:58;;;;;;;2.38;0.60;;;;;;;;;;10203944;28;20218;-77
2023/03/04 07:29:00;;;;;;;1.35;0.75;;;;;;;;;;10207581;28;20305;-80
2023/03/04 07:34:03;;;;;;;2.53;0.80;;;;;;;;;;10207947;28;20350;-80
2023/03/04 07:39:04;;;;;;;4.32;0.52;;;;;;;;;;10214854;28;20226;-79
2023/03/04 07:44:06;;;;;;;2.03;0.55;;;;;;;;;;10210686;28;20564;-76
2023/03/04 07:49:07;;;;;;;0.57;0.40;;;;;;;;;;10190339;28;20310;-80
2023/03/04 07:54:09;;;;;;;2.28;0.50;;;;;;;;;;10216168;28;20692;-78
2023/03/04 07:59:10;;;;;;;0.98;0.47;;;;;;;;;;10221294;28;20312;-80
2023/03/04 08:04:11;;;;;;;4.68;0.60;;;;;;;;;;10224104;28;20221;-78
2023/03/04 08:09:12;;;;;;;2.33;0.63;;;;;;;;;;10224402;28;20933;-80
2023/03/04 08:14:14;;;;;;;3.20;0.57;;;;;;;;;;10225146;28;20214;-77
2023/03/04 08:19:15;;;;;;;0.30;0.30;;;;;;;;;;10221689;28;20222;-80
2023/03/04 08:24:16;;;;;;;4.22;0.82;;;;;;;;;;10223385;28;20236;-77
2023/03/04 08:29:19;;;;;;;1.42;0.60;;;;;;;;;;10214158;28;20225;-79
2023/03/04 08:34:22;;;;;;;1.13;0.65;;;;;;;;;;10222042;28;20225;-79
2023/03/04 08:39:23;;;;;;;1.63;0.73;;;;;;;;;;10206548;28;20225;-78
2023/03/04 08:44:24;;;;;;;1.23;0.70;;;;;;;;;;10205153;28;20214;-78
2023/03/04 08:49:25;;;;;;;0.50;0.50;;;;;;;;;;10204547;28;20241;-78
2023/03/04 08:54:27;;;;;;;1.35;0.77;;;;;;;;;;10219336;28;20276;-81
2023/03/04 08:59:28;;;;;;;2.30;0.95;;;;;;;;;;10218224;28;20225;-76
2023/03/04 09:04:29;;;;;;;1.02;0.52;;;;;;;;;;10218098;28;20674;-75
2023/03/04 09:09:30;;;;;;;0.85;0.50;;;;;;;;;;10215527;28;20245;-78
2023/03/04 09:14:34;;;;;;;3.83;0.80;;;;;;;;;;10201201;28;20243;-78
2023/03/04 09:19:35;;;;;;;0.40;0.40;;;;;;;;;;10201387;28;20222;-76
2023/03/04 09:24:36;;;;;;;1.70;0.50;;;;;;;;;;10217080;28;20379;-79
2023/03/04 09:29:37;;;;;;;1.88;0.50;;;;;;;;;;10214740;28;20219;-79
2023/03/04 09:34:39;;;;;;;0.52;0.50;;;;;;;;;;10222197;28;20222;-78
2023/03/04 09:39:40;;;;;;;1.13;0.28;;;;;;;;;;10233383;28;20292;-80
2023/03/04 09:44:42;;;;;;;2.15;0.30;;;;;;;;;;10219964;28;20288;-80
2023/03/04 09:49:45;;;;;;;1.00;0.40;;;;;;;;;;10200822;28;20250;-78
2023/03/04 09:54:58;;;;;;;1.35;0.20;;;;;;;;;;10198262;28;20241;-76
2023/03/04 10:00:06;;;;;;;0.40;0.40;;;;;;;;;;10212131;28;20670;-77
2023/03/04 10:05:18;;;;;;;0.38;0.20;;;;;;;;;;10217972;28;20277;-76
2023/03/04 10:10:23;;;;;;;0.40;0.30;;;;;;;;;;10206953;28;20226;-78
2023/03/04 10:15:37;;;;;;;0.32;0.20;;;;;;;;;;10219018;28;20229;-77
2023/03/04 10:20:46;;;;;;;1.15;0.20;;;;;;;;;;10211066;28;20221;-79
2023/03/04 10:25:52;;;;;;;0.20;0.20;;;;;;;;;;10195965;28;20214;-79
2023/03/04 10:31:06;;;;;;;0.20;0.20;;;;;;;;;;10209621;28;20738;-79
2023/03/04 10:36:25;;;;;;;2.38;0.80;;;;;;;;;;10215443;28;20258;-80
2023/03/04 10:41:27;;;;;;;3.97;0.80;;;;;;;;;;10211107;28;20225;-77
2023/03/04 10:46:29;;;;;;;3.90;1.00;;;;;;;;;;10206580;28;20218;-79
2023/03/04 10:51:30;;;;;;;4.93;1.17;;;;;;;;;;10189466;28;20227;-79
2023/03/04 10:56:34;;;;;;;3.13;0.60;;;;;;;;;;10203052;28;20233;-79
2023/03/04 11:01:35;;;;;;;3.25;0.60;;;;;;;;;;10207245;28;20218;-78
2023/03/04 11:06:40;;;;;;;1.65;0.32;;;;;;;;;;10207542;28;20238;-80
2023/03/04 11:11:43;;;;;;;0.52;0.25;;;;;;;;;;10180774;28;20249;-80
2023/03/04 11:16:52;;;;;;;3.42;0.70;;;;;;;;;;10211682;28;20277;-80
2023/03/04 11:21:53;;;;;;;3.00;0.45;;;;;;;;;;10213118;28;20228;-81
2023/03/04 11:26:56;;;;;;;3.30;0.40;;;;;;;;;;10211043;28;20288;-79
2023/03/04 11:32:02;;;;;;;3.90;0.50;;;;;;;;;;10193271;28;20269;-80
2023/03/04 11:37:15;;;;;;;1.27;0.60;;;;;;;;;;10206289;28;20237;-78
2023/03/04 11:42:20;;;;;;;1.65;0.77;;;;;;;;;;10196054;28;20229;-79
2023/03/04 11:47:27;;;;;;;2.83;0.77;;;;;;;;;;10212916;28;20250;-80
2023/03/04 11:52:35;;;;;;;6.85;0.80;;;;;;;;;;10216977;28;20225;-79
2023/03/04 11:57:42;;;;;;;3.10;0.57;;;;;;;;;;10200480;28;20241;-77
2023/03/04 12:03:07;;;;;;;1.65;0.75;;;;;;;;;;10220896;28;20940;-78
2023/03/04 12:08:16;;;;;;;2.75;0.50;;;;;;;;;;10216477;28;20672;-79
2023/03/04 12:13:36;;;;;;;1.10;0.70;;;;;;;;;;10215833;28;20217;-78
2023/03/04 12:18:44;;;;;;;3.35;0.55;;;;;;;;;;10206084;28;20229;-78
2023/03/04 12:24:04;;;;;;;5.32;0.60;;;;;;;;;;10218801;28;20221;-77
2023/03/04 12:29:13;;;;;;;4.80;0.80;;;;;;;;;;10215092;28;20818;-76
2023/03/04 12:34:30;;;;;;;4.68;0.75;;;;;;;;;;10217412;28;20261;-79
2023/03/04 12:39:34;;;;;;;1.45;0.47;;;;;;;;;;10213789;28;20236;-79
2023/03/04 12:44:41;;;;;;;1.15;0.80;;;;;;;;;;10216696;28;20835;-79
2023/03/04 12:49:42;;;;;;;2.47;0.60;;;;;;;;;;10219613;28;20736;-79
2023/03/04 12:54:45;;;;;;;5.53;0.30;;;;;;;;;;10212900;28;20219;-79
2023/03/04 12:59:53;;;;;;;1.63;0.30;;;;;;;;;;10198559;28;20230;-79
2023/03/04 13:05:13;;;;;;;0.50;0.43;;;;;;;;;;10213283;28;20220;-78
2023/03/04 13:10:17;;;;;;;3.15;0.57;;;;;;;;;;10204083;28;20222;-78
2023/03/04 13:15:27;;;;;;;0.32;0.30;;;;;;;;;;10216963;28;20202;-80
2023/03/04 13:20:31;;;;;;;3.63;1.33;;;;;;;;;;10217839;28;20314;-79
2023/03/04 13:25:34;;;;;;;2.50;0.55;;;;;;;;;;10200438;28;20221;-80
2023/03/04 13:30:37;;;;;;;2.28;0.55;;;;;;;;;;10217710;28;20218;-79
2023/03/04 13:35:58;;;;;;;2.95;0.40;;;;;;;;;;10213197;28;20234;-79
2023/03/04 13:40:59;;;;;;;1.92;0.35;;;;;;;;;;10196341;28;20230;-80
2023/03/04 13:46:25;;;;;;;2.42;0.52;;;;;;;;;;10212454;28;20218;-79
2023/03/04 13:51:40;;;;;;;4.57;3.00;;;;;;;;;;10207019;28;20238;-79
2023/03/04 13:56:46;;;;;;;4.47;0.98;;;;;;;;;;10196490;28;20314;-80
2023/03/04 14:01:47;;;;;;;5.15;0.47;;;;;;;;;;10212430;28;20705;-77
2023/03/04 14:06:49;;;;;;;3.90;0.30;;;;;;;;;;10213995;28;20881;-80
2023/03/04 14:11:52;;;;;;;3.63;0.47;;;;;;;;;;10217358;28;20233;-79
2023/03/04 14:16:55;;;;;;;2.28;0.50;;;;;;;;;;10213151;28;20218;-78
2023/03/04 14:21:57;;;;;;;8.18;0.57;;;;;;;;;;10196947;28;20252;-78
2023/03/04 14:27:10;;;;;;;0.75;0.50;;;;;;;;;;10200586;28;20214;-78
2023/03/04 14:32:11;;;;;;;3.17;0.50;;;;;;;;;;10211660;28;20521;-79
2023/03/04 14:37:20;;;;;;;6.65;1.10;;;;;;;;;;10212490;28;20798;-79
2023/03/04 14:42:23;;;;;;;2.05;0.50;;;;;;;;;;10210861;28;20606;-77
2023/03/04 14:47:30;;;;;;;3.22;0.90;;;;;;;;;;10210273;28;20700;-78
2023/03/04 14:52:31;;;;;;;3.30;0.70;;;;;;;;;;10212479;28;20222;-78
2023/03/04 14:57:33;;;;;;;9.93;1.17;;;;;;;;;;10198076;28;20343;-78
2023/03/04 15:02:40;;;;;;;5.03;1.30;;;;;;;;;;10215144;28;20610;-78
2023/03/04 15:07:42;;;;;;;4.20;0.73;;;;;;;;;;10213006;28;20398;-79
2023/03/04 15:12:50;;;;;;;5.10;1.10;;;;;;;;;;10210548;28;20218;-77
2023/03/04 15:17:57;;;;;;;5.00;0.70;;;;;;;;;;10215660;28;20230;-77
2023/03/04 15:23:05;;;;;;;5.35;0.80;;;;;;;;;;10221379;28;20952;-80
2023/03/04 15:28:12;;;;;;;2.85;0.50;;;;;;;;;;10190959;28;20210;-80
2023/03/04 15:33:13;;;;;;;7.25;0.60;;;;;;;;;;10202301;28;20232;-80
2023/03/04 15:38:14;;;;;;;3.95;0.63;;;;;;;;;;10206454;28;20223;-80
2023/03/04 15:43:17;;;;;;;3.90;1.70;;;;;;;;;;10208799;28;20906;-81
2023/03/04 15:48:19;;;;;;;10.13;0.70;;;;;;;;;;10206876;28;20217;-78
2023/03/04 15:53:26;;;;;;;9.50;1.15;;;;;;;;;;10204350;28;20354;-78
2023/03/04 15:58:28;;;;;;;6.07;0.70;;;;;;;;;;10190341;28;20227;-79
2023/03/04 16:03:29;;;;;;;4.53;0.80;;;;;;;;;;10204159;28;20222;-78
2023/03/04 16:08:30;;;;;;;3.40;0.95;;;;;;;;;;10213508;28;20250;-81
2023/03/04 16:13:32;;;;;;;3.78;0.93;;;;;;;;;;10207108;28;20341;-78
2023/03/04 16:18:33;;;;;;;9.05;1.90;;;;;;;;;;10206883;28;20230;-77
2023/03/04 16:23:38;;;;;;;8.88;1.10;;;;;;;;;;10204825;28;20285;-78
2023/03/04 16:28:39;;;;;;;5.85;1.13;;;;;;;;;;10210071;28;20222;-77
2023/03/04 16:33:41;;;;;;;3.97;0.65;;;;;;;;;;10195415;28;20318;-78
2023/03/04 16:38:42;;;;;;;4.35;0.95;;;;;;;;;;10211643;28;20297;-79
2023/03/04 16:43:43;;;;;;;6.40;0.98;;;;;;;;;;10202127;28;20217;-77
2023/03/04 16:48:46;;;;;;;4.43;1.00;;;;;;;;;;10204003;28;20214;-77
2023/03/04 16:53:48;;;;;;;8.55;1.05;;;;;;;;;;10209792;28;20214;-78
2023/03/04 16:58:50;;;;;;;6.80;1.13;;;;;;;;;;10203482;28;20317;-78
2023/03/04 17:03:51;;;;;;;3.05;0.88;;;;;;;;;;10186788;28;20230;-79
2023/03/04 17:08:52;;;;;;;4.97;0.85;;;;;;;;;;10192723;28;20221;-78
2023/03/04 17:13:54;;;;;;;5.35;0.70;;;;;;;;;;10227362;28;20249;-77
2023/03/04 17:18:55;;;;;;;7.65;0.98;;;;;;;;;;10215004;28;20230;-79
2023/03/04 17:23:56;;;;;;;4.18;1.05;;;;;;;;;;10221696;28;20635;-77
2023/03/04 17:28:57;;;;;;;6.60;0.93;;;;;;;;;;10215657;28;20215;-79
2023/03/04 17:33:58;;;;;;;5.68;1.13;;;;;;;;;;10217751;28;20210;-78
2023/03/04 17:39:01;;;;;;;9.73;0.95;;;;;;;;;;10220231;28;20271;-77
2023/03/04 17:44:02;;;;;;;6.22;0.68;;;;;;;;;;10216546;28;20767;-78
2023/03/04 17:49:03;;;;;;;4.90;0.98;;;;;;;;;;10220693;28;20226;-79
2023/03/04 17:54:06;;;;;;;5.40;0.80;;;;;;;;;;10218641;28;20218;-77
2023/03/04 17:59:09;;;;;;;1.88;0.60;;;;;;;;;;10211156;28;20280;-80
2023/03/04 18:04:10;;;;;;;2.22;0.80;;;;;;;;;;10210434;28;20242;-78
2023/03/04 18:09:11;;;;;;;1.33;0.50;;;;;;;;;;10211266;28;20354;-79
2023/03/04 18:14:12;;;;;;;2.55;0.75;;;;;;;;;;10209905;28;20699;-79
2023/03/04 18:19:13;;;;;;;4.10;1.00;;;;;;;;;;10205815;28;20318;-79
2023/03/04 18:24:14;;;;;;;7.97;0.73;;;;;;;;;;10196478;28;20574;-77
2023/03/04 18:29:16;;;;;;;4.57;0.70;;;;;;;;;;10209542;28;20222;-79
2023/03/04 18:34:17;;;;;;;8.93;1.20;;;;;;;;;;10194169;28;20242;-79
2023/03/04 18:39:18;;;;;;;3.22;1.15;;;;;;;;;;10210983;28;20312;-78
2023/03/04 18:44:19;;;;;;;3.60;0.70;;;;;;;;;;10197678;28;20276;-78
2023/03/04 18:49:21;;;;;;;5.93;0.50;;;;;;;;;;10208555;28;20304;-79
2023/03/04 18:54:22;;;;;;;5.53;0.50;;;;;;;;;;10207705;28;20226;-78
2023/03/04 18:59:31;;;;;;;2.67;0.80;;;;;;;;;;10207706;28;20289;-79
2023/03/04 19:04:32;;;;;;;8.00;0.70;;;;;;;;;;10207324;28;20313;-75
2023/03/04 19:09:33;;;;;;;1.15;0.47;;;;;;;;;;10189192;28;20214;-75
2023/03/04 19:14:34;;;;;;;2.65;0.52;;;;;;;;;;10193168;28;20237;-76
2023/03/04 19:19:35;;;;;;;4.10;0.70;;;;;;;;;;10181891;28;21264;-77
2023/03/04 19:24:37;;;;;;;3.67;0.63;;;;;;;;;;10202448;28;20251;-77
2023/03/04 19:29:38;;;;;;;4.35;0.80;;;;;;;;;;10195090;28;20603;-78
2023/03/04 19:34:39;;;;;;;4.05;0.70;;;;;;;;;;10195575;28;20708;-78
2023/03/04 19:39:42;;;;;;;5.63;0.75;;;;;;;;;;10201016;28;20246;-79
2023/03/04 19:44:43;;;;;;;5.10;0.60;;;;;;;;;;10197537;28;22384;-76
2023/03/04 19:49:44;;;;;;;2.72;0.43;;;;;;;;;;10199353;28;20257;-79
2023/03/04 19:54:45;;;;;;;1.10;0.47;;;;;;;;;;10196973;28;20245;-80
2023/03/04 19:59:47;;;;;;;5.63;0.70;;;;;;;;;;10205428;28;20219;-77
2023/03/04 20:04:48;;;;;;;2.60;0.88;;;;;;;;;;10210942;28;20906;-79
2023/03/04 20:09:49;;;;;;;7.20;0.65;;;;;;;;;;10208023;28;21174;-80
2023/03/04 20:14:50;;;;;;;5.10;0.50;;;;;;;;;;10214670;28;20245;-81
2023/03/04 20:19:51;;;;;;;1.48;0.80;;;;;;;;;;10217390;28;20723;-79
2023/03/04 20:24:53;;;;;;;4.30;0.95;;;;;;;;;;10219218;28;20210;-79
2023/03/04 20:29:55;;;;;;;1.77;0.85;;;;;;;;;;10212411;28;20794;-78
2023/03/04 20:34:57;;;;;;;2.38;0.70;;;;;;;;;;10206472;28;20329;-76
2023/03/04 20:39:58;;;;;;;2.33;0.50;;;;;;;;;;10192463;28;20214;-79
2023/03/04 20:44:59;;;;;;;2.83;0.40;;;;;;;;;;10207190;28;20222;-78
2023/03/04 20:50:00;;;;;;;3.20;0.50;;;;;;;;;;10208716;28;20304;-79
2023/03/04 20:55:01;;;;;;;3.03;0.73;;;;;;;;;;10206207;28;20810;-75
2023/03/04 21:00:04;;;;;;;1.23;0.30;;;;;;;;;;10207590;28;20217;-78
2023/03/04 21:05:05;;;;;;;2.95;0.63;;;;;;;;;;10197629;28;20653;-76
2023/03/04 21:10:06;;;;;;;4.93;0.80;;;;;;;;;;10221333;28;20202;-78
2023/03/04 21:15:08;;;;;;;1.95;0.40;;;;;;;;;;10208527;28;20209;-79
2023/03/04 21:20:10;;;;;;;0.75;0.38;;;;;;;;;;10209475;28;20228;-76
2023/03/04 21:25:11;;;;;;;1.65;0.50;;;;;;;;;;10210441;28;20183;-77
2023/03/04 21:30:12;;;;;;;4.47;0.65;;;;;;;;;;10212790;28;20602;-78
2023/03/04 21:35:14;;;;;;;2.05;0.60;;;;;;;;;;10196504;28;20203;-75
2023/03/04 21:40:15;;;;;;;1.17;0.25;;;;;;;;;;10214012;28;20190;-76
2023/03/04 21:45:16;;;;;;;1.52;0.55;;;;;;;;;;10217658;28;20239;-78
2023/03/04 21:50:17;;;;;;;8.98;0.40;;;;;;;;;;10201165;28;20214;-76
2023/03/04 21:55:18;;;;;;;0.22;0.22;;;;;;;;;;10203488;28;20253;-77
2023/03/04 22:00:20;;;;;;;1.65;0.30;;;;;;;;;;10215769;28;20723;-74
2023/03/04 22:05:21;;;;;;;1.75;0.73;;;;;;;;;;10213792;28;20339;-77
2023/03/04 22:10:22;;;;;;;2.80;0.40;;;;;;;;;;10229572;28;20214;-77
2023/03/04 22:15:24;;;;;;;5.65;0.65;;;;;;;;;;10219838;28;20230;-77
2023/03/04 22:20:25;;;;;;;2.00;0.30;;;;;;;;;;10212746;28;20276;-76
2023/03/04 22:25:26;;;;;;;4.47;0.88;;;;;;;;;;10213813;28;20218;-80
2023/03/04 22:30:27;;;;;;;2.65;0.65;;;;;;;;;;10217617;28;20722;-77
2023/03/04 22:35:28;;;;;;;3.35;0.40;;;;;;;;;;10210222;28;20368;-79
2023/03/04 22:40:29;;;;;;;5.15;0.60;;;;;;;;;;10214487;28;20237;-75
2023/03/04 22:45:31;;;;;;;3.28;0.30;;;;;;;;;;10211296;28;20304;-77
2023/03/04 22:50:34;;;;;;;0.43;0.22;;;;;;;;;;10208260;28;20226;-77
2023/03/04 22:55:35;;;;;;;2.88;0.60;;;;;;;;;;10210308;28;20743;-75
2023/03/04 23:00:37;;;;;;;4.90;0.47;;;;;;;;;;10197132;28;20244;-75
2023/03/04 23:05:38;;;;;;;1.45;0.52;;;;;;;;;;10213976;28;20237;-75
2023/03/04 23:10:41;;;;;;;1.90;0.38;;;;;;;;;;10212693;28;20237;-73
2023/03/04 23:15:42;;;;;;;3.22;0.28;;;;;;;;;;10213120;28;20789;-78
2023/03/04 23:20:43;;;;;;;2.30;0.32;;;;;;;;;;10215368;28;20704;-76
2023/03/04 23:25:45;;;;;;;1.10;0.20;;;;;;;;;;10198772;28;20221;-79
2023/03/04 23:30:46;;;;;;;1.42;0.28;;;;;;;;;;10214291;28;20932;-74
2023/03/04 23:35:47;;;;;;;2.28;0.15;;;;;;;;;;10206903;28;20233;-77
2023/03/04 23:40:48;;;;;;;1.65;0.57;;;;;;;;;;10204347;28;20249;-77
2023/03/04 23:45:49;;;;;;;4.18;0.63;;;;;;;;;;10206175;28;20214;-74
2023/03/04 23:50:52;;;;;;;0.85;0.63;;;;;;;;;;10224136;28;20229;-78
2023/03/04 23:55:53;;;;;;;0.63;0.40;;;;;;;;;;10219842;28;20236;-79
